sensor_id;sensor_type;location;lat;lon;timestamp;pressure;altitude;pressure_sealevel;temperature;humidity
83095;BME280;72967;43.674;6.976;2024-01-11T00:02:13;97076.22;;;9.59;47.16
83095;BME280;72967;43.674;6.976;2024-01-11T00:04:40;97062.84;;;9.58;47.30
83095;BME280;72967;43.674;6.976;2024-01-11T00:07:06;97075.53;;;9.42;47.52
83095;BME280;72967;43.674;6.976;2024-01-11T00:09:31;97081.91;;;9.54;47.75
83095;BME280;72967;43.674;6.976;2024-01-11T00:11:56;97073.03;;;9.49;47.35
83095;BME280;72967;43.674;6.976;2024-01-11T00:14:22;97075.34;;;9.47;46.51
83095;BME280;72967;43.674;6.976;2024-01-11T00:16:47;97071.59;;;9.51;47.38
83095;BME280;72967;43.674;6.976;2024-01-11T00:19:12;97069.41;;;9.65;46.55
83095;BME280;72967;43.674;6.976;2024-01-11T00:21:38;97059.13;;;9.54;45.50
83095;BME280;72967;43.674;6.976;2024-01-11T00:24:03;97059.13;;;9.54;45.97
83095;BME280;72967;43.674;6.976;2024-01-11T00:26:29;97059.41;;;9.61;45.95
83095;BME280;72967;43.674;6.976;2024-01-11T00:28:54;97064.81;;;9.49;46.29
83095;BME280;72967;43.674;6.976;2024-01-11T00:31:20;97064.16;;;9.52;47.10
83095;BME280;72967;43.674;6.976;2024-01-11T00:33:45;97052.81;;;9.62;47.24
83095;BME280;72967;43.674;6.976;2024-01-11T00:36:11;97049.72;;;9.63;47.65
83095;BME280;72967;43.674;6.976;2024-01-11T00:38:42;97052.19;;;9.56;47.65
83095;BME280;72967;43.674;6.976;2024-01-11T00:41:07;97057.13;;;9.42;47.20
83095;BME280;72967;43.674;6.976;2024-01-11T00:43:32;97041.50;;;9.34;47.81
83095;BME280;72967;43.674;6.976;2024-01-11T00:45:58;97052.16;;;9.35;47.93
83095;BME280;72967;43.674;6.976;2024-01-11T00:48:23;97050.59;;;9.26;48.25
83095;BME280;72967;43.674;6.976;2024-01-11T00:50:49;97050.22;;;9.36;47.28
83095;BME280;72967;43.674;6.976;2024-01-11T00:53:14;97044.25;;;9.34;47.88
83095;BME280;72967;43.674;6.976;2024-01-11T00:55:40;97044.94;;;9.22;47.64
83095;BME280;72967;43.674;6.976;2024-01-11T00:58:05;97057.34;;;9.28;48.44
83095;BME280;72967;43.674;6.976;2024-01-11T01:00:30;97052.66;;;9.29;48.54
83095;BME280;72967;43.674;6.976;2024-01-11T01:02:56;97057.84;;;9.30;49.16
83095;BME280;72967;43.674;6.976;2024-01-11T01:05:21;97049.34;;;9.15;48.82
83095;BME280;72967;43.674;6.976;2024-01-11T01:07:47;97049.59;;;9.30;48.92
83095;BME280;72967;43.674;6.976;2024-01-11T01:10:12;97051.91;;;9.20;49.09
83095;BME280;72967;43.674;6.976;2024-01-11T01:12:37;97047.59;;;9.10;49.65
83095;BME280;72967;43.674;6.976;2024-01-11T01:15:03;97051.34;;;8.97;49.53
83095;BME280;72967;43.674;6.976;2024-01-11T01:17:29;97047.81;;;8.96;50.12
83095;BME280;72967;43.674;6.976;2024-01-11T01:19:54;97042.38;;;8.88;50.53
83095;BME280;72967;43.674;6.976;2024-01-11T01:22:19;97031.72;;;8.86;50.48
83095;BME280;72967;43.674;6.976;2024-01-11T01:24:45;97037.75;;;8.80;51.05
83095;BME280;72967;43.674;6.976;2024-01-11T01:27:10;97042.25;;;8.76;51.17
83095;BME280;72967;43.674;6.976;2024-01-11T01:29:36;97037.06;;;8.83;51.61
83095;BME280;72967;43.674;6.976;2024-01-11T01:32:01;97030.50;;;8.75;50.76
83095;BME280;72967;43.674;6.976;2024-01-11T01:34:26;97029.53;;;8.71;51.20
83095;BME280;72967;43.674;6.976;2024-01-11T01:36:52;97033.59;;;8.65;50.50
83095;BME280;72967;43.674;6.976;2024-01-11T01:39:17;97033.44;;;8.62;51.80
83095;BME280;72967;43.674;6.976;2024-01-11T01:41:43;97007.50;;;8.50;51.33
83095;BME280;72967;43.674;6.976;2024-01-11T01:44:08;97033.91;;;8.64;51.55
83095;BME280;72967;43.674;6.976;2024-01-11T01:46:34;97026.22;;;8.48;51.57
83095;BME280;72967;43.674;6.976;2024-01-11T01:49:00;97038.13;;;8.52;51.95
83095;BME280;72967;43.674;6.976;2024-01-11T01:51:29;97025.66;;;8.72;49.84
83095;BME280;72967;43.674;6.976;2024-01-11T01:53:56;97023.53;;;8.78;50.43
83095;BME280;72967;43.674;6.976;2024-01-11T01:56:22;96999.28;;;8.59;48.84
83095;BME280;72967;43.674;6.976;2024-01-11T01:58:50;97032.56;;;8.78;48.53
83095;BME280;72967;43.674;6.976;2024-01-11T02:01:17;97032.22;;;8.88;47.82
83095;BME280;72967;43.674;6.976;2024-01-11T02:03:45;97024.78;;;8.89;47.91
83095;BME280;72967;43.674;6.976;2024-01-11T02:06:13;97038.50;;;8.89;48.76
83095;BME280;72967;43.674;6.976;2024-01-11T02:08:40;97015.63;;;8.76;49.50
83095;BME280;72967;43.674;6.976;2024-01-11T02:11:07;97028.44;;;9.02;48.72
83095;BME280;72967;43.674;6.976;2024-01-11T02:13:33;97036.06;;;8.87;49.32
83095;BME280;72967;43.674;6.976;2024-01-11T02:15:58;97040.44;;;8.88;49.20
83095;BME280;72967;43.674;6.976;2024-01-11T02:18:24;97033.81;;;8.89;49.95
83095;BME280;72967;43.674;6.976;2024-01-11T02:20:50;97038.75;;;9.05;49.17
83095;BME280;72967;43.674;6.976;2024-01-11T02:23:19;97027.22;;;9.20;49.15
83095;BME280;72967;43.674;6.976;2024-01-11T02:25:45;97031.03;;;9.07;49.04
83095;BME280;72967;43.674;6.976;2024-01-11T02:28:10;97031.97;;;9.11;49.08
83095;BME280;72967;43.674;6.976;2024-01-11T02:30:36;97020.06;;;9.07;48.04
83095;BME280;72967;43.674;6.976;2024-01-11T02:33:02;97021.31;;;9.09;49.43
83095;BME280;72967;43.674;6.976;2024-01-11T02:35:28;97010.97;;;9.15;47.96
83095;BME280;72967;43.674;6.976;2024-01-11T02:37:54;97011.56;;;9.20;49.12
83095;BME280;72967;43.674;6.976;2024-01-11T02:40:20;97016.19;;;8.99;49.11
83095;BME280;72967;43.674;6.976;2024-01-11T02:42:46;97009.25;;;9.02;48.81
83095;BME280;72967;43.674;6.976;2024-01-11T02:45:12;96988.09;;;9.02;49.13
83095;BME280;72967;43.674;6.976;2024-01-11T02:47:38;96979.00;;;8.89;49.87
83095;BME280;72967;43.674;6.976;2024-01-11T02:50:04;96997.00;;;8.99;49.50
83095;BME280;72967;43.674;6.976;2024-01-11T02:52:30;96985.09;;;9.24;49.30
83095;BME280;72967;43.674;6.976;2024-01-11T02:54:55;96971.19;;;9.29;49.23
83095;BME280;72967;43.674;6.976;2024-01-11T02:57:21;96979.53;;;9.33;49.17
83095;BME280;72967;43.674;6.976;2024-01-11T02:59:46;96975.81;;;9.37;49.35
83095;BME280;72967;43.674;6.976;2024-01-11T03:02:11;96976.19;;;9.27;49.31
83095;BME280;72967;43.674;6.976;2024-01-11T03:04:37;96972.63;;;9.06;50.18
83095;BME280;72967;43.674;6.976;2024-01-11T03:07:02;96976.13;;;9.15;49.41
83095;BME280;72967;43.674;6.976;2024-01-11T03:09:28;96979.53;;;9.33;49.36
83095;BME280;72967;43.674;6.976;2024-01-11T03:11:53;96979.78;;;9.19;49.28
83095;BME280;72967;43.674;6.976;2024-01-11T03:14:19;96980.91;;;9.18;48.48
83095;BME280;72967;43.674;6.976;2024-01-11T03:16:44;96973.78;;;9.26;48.70
83095;BME280;72967;43.674;6.976;2024-01-11T03:19:09;96983.16;;;9.25;48.94
83095;BME280;72967;43.674;6.976;2024-01-11T03:21:35;96974.19;;;9.36;47.77
83095;BME280;72967;43.674;6.976;2024-01-11T03:24:05;96976.47;;;9.55;47.09
83095;BME280;72967;43.674;6.976;2024-01-11T03:26:31;96972.00;;;9.51;46.33
83095;BME280;72967;43.674;6.976;2024-01-11T03:28:56;96969.66;;;9.61;46.91
83095;BME280;72967;43.674;6.976;2024-01-11T03:31:21;96966.63;;;9.54;46.47
83095;BME280;72967;43.674;6.976;2024-01-11T03:33:47;96964.50;;;9.60;46.52
83095;BME280;72967;43.674;6.976;2024-01-11T03:36:12;96965.41;;;9.64;46.18
83095;BME280;72967;43.674;6.976;2024-01-11T03:38:38;96957.38;;;9.59;46.95
83095;BME280;72967;43.674;6.976;2024-01-11T03:41:10;96962.34;;;9.65;46.73
83095;BME280;72967;43.674;6.976;2024-01-11T03:43:36;96960.94;;;9.59;47.43
83095;BME280;72967;43.674;6.976;2024-01-11T03:46:02;96947.69;;;9.61;47.57
83095;BME280;72967;43.674;6.976;2024-01-11T03:48:28;96962.56;;;9.60;47.18
83095;BME280;72967;43.674;6.976;2024-01-11T03:50:53;96959.88;;;9.52;47.17
83095;BME280;72967;43.674;6.976;2024-01-11T03:53:19;96957.66;;;9.45;47.86
83095;BME280;72967;43.674;6.976;2024-01-11T03:55:44;96965.91;;;9.45;47.26
83095;BME280;72967;43.674;6.976;2024-01-11T03:58:10;96962.47;;;9.48;47.72
83095;BME280;72967;43.674;6.976;2024-01-11T04:00:35;96954.91;;;9.66;47.12
83095;BME280;72967;43.674;6.976;2024-01-11T04:03:00;96951.91;;;9.59;47.81
83095;BME280;72967;43.674;6.976;2024-01-11T04:05:27;96955.72;;;9.46;48.49
83095;BME280;72967;43.674;6.976;2024-01-11T04:07:53;96961.16;;;9.54;48.52
83095;BME280;72967;43.674;6.976;2024-01-11T04:10:18;96956.88;;;9.45;48.57
83095;BME280;72967;43.674;6.976;2024-01-11T04:12:44;96953.72;;;9.55;48.60
83095;BME280;72967;43.674;6.976;2024-01-11T04:15:12;96966.22;;;9.44;48.59
83095;BME280;72967;43.674;6.976;2024-01-11T04:17:38;96960.50;;;9.57;48.55
83095;BME280;72967;43.674;6.976;2024-01-11T04:20:05;96963.28;;;9.69;47.30
83095;BME280;72967;43.674;6.976;2024-01-11T04:22:30;96949.97;;;9.59;47.35
83095;BME280;72967;43.674;6.976;2024-01-11T04:24:56;96959.34;;;9.58;47.49
83095;BME280;72967;43.674;6.976;2024-01-11T04:27:21;96947.16;;;9.68;47.47
83095;BME280;72967;43.674;6.976;2024-01-11T04:29:46;96954.06;;;9.74;47.62
83095;BME280;72967;43.674;6.976;2024-01-11T04:32:12;96948.22;;;9.55;47.50
83095;BME280;72967;43.674;6.976;2024-01-11T04:34:37;96949.97;;;9.59;47.01
83095;BME280;72967;43.674;6.976;2024-01-11T04:37:03;96942.88;;;9.58;47.55
83095;BME280;72967;43.674;6.976;2024-01-11T04:39:28;96942.53;;;9.60;47.45
83095;BME280;72967;43.674;6.976;2024-01-11T04:41:54;96946.50;;;9.50;47.26
83095;BME280;72967;43.674;6.976;2024-01-11T04:44:19;96942.81;;;9.67;46.79
83095;BME280;72967;43.674;6.976;2024-01-11T04:46:45;96943.81;;;9.62;46.85
83095;BME280;72967;43.674;6.976;2024-01-11T04:49:10;96940.59;;;9.60;46.14
83095;BME280;72967;43.674;6.976;2024-01-11T04:51:35;96938.97;;;9.59;46.17
83095;BME280;72967;43.674;6.976;2024-01-11T04:54:01;96918.63;;;9.60;45.84
83095;BME280;72967;43.674;6.976;2024-01-11T04:56:26;96930.41;;;9.81;45.80
83095;BME280;72967;43.674;6.976;2024-01-11T04:58:52;96935.41;;;9.79;45.39
83095;BME280;72967;43.674;6.976;2024-01-11T05:01:18;96929.59;;;9.81;45.77
83095;BME280;72967;43.674;6.976;2024-01-11T05:03:45;96941.31;;;9.69;46.06
83095;BME280;72967;43.674;6.976;2024-01-11T05:06:21;96931.69;;;9.84;45.64
83095;BME280;72967;43.674;6.976;2024-01-11T05:08:49;96930.06;;;9.83;45.90
83095;BME280;72967;43.674;6.976;2024-01-11T05:11:24;96933.34;;;9.76;46.24
83095;BME280;72967;43.674;6.976;2024-01-11T05:13:51;96930.81;;;9.71;47.22
83095;BME280;72967;43.674;6.976;2024-01-11T05:16:21;96934.91;;;9.65;47.41
83095;BME280;72967;43.674;6.976;2024-01-11T05:18:47;96937.84;;;9.60;46.50
83095;BME280;72967;43.674;6.976;2024-01-11T05:21:13;96931.22;;;9.61;47.44
83095;BME280;72967;43.674;6.976;2024-01-11T05:23:40;96934.91;;;9.65;47.17
83095;BME280;72967;43.674;6.976;2024-01-11T05:26:07;96931.41;;;9.77;47.33
83095;BME280;72967;43.674;6.976;2024-01-11T05:28:32;96940.13;;;9.79;47.39
83095;BME280;72967;43.674;6.976;2024-01-11T05:30:58;96940.25;;;9.82;47.48
83095;BME280;72967;43.674;6.976;2024-01-11T05:33:23;96937.97;;;9.64;48.01
83095;BME280;72967;43.674;6.976;2024-01-11T05:35:48;96942.28;;;9.73;47.50
83095;BME280;72967;43.674;6.976;2024-01-11T05:38:16;96933.50;;;9.59;48.14
83095;BME280;72967;43.674;6.976;2024-01-11T05:40:41;96939.13;;;9.63;48.00
83095;BME280;72967;43.674;6.976;2024-01-11T05:43:06;96940.13;;;9.79;47.83
83095;BME280;72967;43.674;6.976;2024-01-11T05:45:32;96934.22;;;9.89;47.34
83095;BME280;72967;43.674;6.976;2024-01-11T05:47:59;96931.69;;;9.84;47.85
83095;BME280;72967;43.674;6.976;2024-01-11T05:50:24;96945.41;;;9.84;47.52
83095;BME280;72967;43.674;6.976;2024-01-11T05:52:51;96941.72;;;9.80;47.20
83095;BME280;72967;43.674;6.976;2024-01-11T05:55:17;96948.09;;;9.72;47.63
83095;BME280;72967;43.674;6.976;2024-01-11T05:57:42;96949.50;;;9.78;48.10
83095;BME280;72967;43.674;6.976;2024-01-11T06:00:08;96934.47;;;9.75;48.72
83095;BME280;72967;43.674;6.976;2024-01-11T06:02:33;96949.09;;;9.88;48.98
83095;BME280;72967;43.674;6.976;2024-01-11T06:05:01;96943.81;;;9.83;48.28
83095;BME280;72967;43.674;6.976;2024-01-11T06:07:26;96949.75;;;9.85;47.54
83095;BME280;72967;43.674;6.976;2024-01-11T06:09:51;96949.75;;;9.85;47.84
83095;BME280;72967;43.674;6.976;2024-01-11T06:12:18;96951.81;;;9.88;47.27
83095;BME280;72967;43.674;6.976;2024-01-11T06:14:43;96947.56;;;9.78;47.15
83095;BME280;72967;43.674;6.976;2024-01-11T06:17:08;96955.53;;;9.71;47.38
83095;BME280;72967;43.674;6.976;2024-01-11T06:19:36;96956.66;;;9.70;48.13
83095;BME280;72967;43.674;6.976;2024-01-11T06:22:02;96953.59;;;9.72;48.22
83095;BME280;72967;43.674;6.976;2024-01-11T06:24:28;96947.97;;;9.68;47.78
83095;BME280;72967;43.674;6.976;2024-01-11T06:26:53;96943.09;;;9.74;48.14
83095;BME280;72967;43.674;6.976;2024-01-11T06:29:19;96954.19;;;9.77;48.33
83095;BME280;72967;43.674;6.976;2024-01-11T06:31:44;96957.59;;;9.74;48.29
83095;BME280;72967;43.674;6.976;2024-01-11T06:34:10;96961.81;;;9.72;48.55
83095;BME280;72967;43.674;6.976;2024-01-11T06:36:35;96958.16;;;9.68;49.22
83095;BME280;72967;43.674;6.976;2024-01-11T06:39:00;96954.84;;;9.74;49.73
83095;BME280;72967;43.674;6.976;2024-01-11T06:41:26;96966.50;;;9.71;48.46
83095;BME280;72967;43.674;6.976;2024-01-11T06:43:51;96972.06;;;9.63;49.39
83095;BME280;72967;43.674;6.976;2024-01-11T06:46:20;96950.13;;;9.63;50.92
83095;BME280;72967;43.674;6.976;2024-01-11T06:48:49;96968.16;;;9.64;50.92
83095;BME280;72967;43.674;6.976;2024-01-11T06:51:21;96959.16;;;9.63;51.63
83095;BME280;72967;43.674;6.976;2024-01-11T06:53:46;96949.63;;;9.40;52.30
83095;BME280;72967;43.674;6.976;2024-01-11T06:56:15;96940.59;;;9.39;52.41
83095;BME280;72967;43.674;6.976;2024-01-11T06:58:41;96969.56;;;9.49;51.66
83095;BME280;72967;43.674;6.976;2024-01-11T07:01:07;96973.72;;;9.55;52.04
83095;BME280;72967;43.674;6.976;2024-01-11T07:03:32;96970.25;;;9.46;50.92
83095;BME280;72967;43.674;6.976;2024-01-11T07:05:58;96968.78;;;9.49;52.00
83095;BME280;72967;43.674;6.976;2024-01-11T07:08:23;96968.13;;;9.52;52.51
83095;BME280;72967;43.674;6.976;2024-01-11T07:10:48;96973.84;;;9.59;52.62
83095;BME280;72967;43.674;6.976;2024-01-11T07:13:14;96978.28;;;9.51;52.80
83095;BME280;72967;43.674;6.976;2024-01-11T07:15:42;96974.75;;;9.51;54.22
83095;BME280;72967;43.674;6.976;2024-01-11T07:18:07;96983.44;;;9.53;54.00
83095;BME280;72967;43.674;6.976;2024-01-11T07:20:33;96979.22;;;9.34;54.59
83095;BME280;72967;43.674;6.976;2024-01-11T07:22:59;96981.94;;;9.34;54.80
83095;BME280;72967;43.674;6.976;2024-01-11T07:25:25;96964.56;;;9.30;56.15
83095;BME280;72967;43.674;6.976;2024-01-11T07:27:50;96980.69;;;9.32;56.65
83095;BME280;72967;43.674;6.976;2024-01-11T07:30:15;96972.47;;;9.32;56.64
83095;BME280;72967;43.674;6.976;2024-01-11T07:32:41;96976.97;;;9.28;57.27
83095;BME280;72967;43.674;6.976;2024-01-11T07:35:07;96979.59;;;9.24;58.04
83095;BME280;72967;43.674;6.976;2024-01-11T07:37:32;96983.22;;;9.16;58.89
83095;BME280;72967;43.674;6.976;2024-01-11T07:39:58;96981.09;;;9.22;58.83
83095;BME280;72967;43.674;6.976;2024-01-11T07:42:23;96987.13;;;9.07;58.57
83095;BME280;72967;43.674;6.976;2024-01-11T07:44:49;96983.63;;;9.27;59.74
83095;BME280;72967;43.674;6.976;2024-01-11T07:47:15;96993.50;;;9.19;60.37
83095;BME280;72967;43.674;6.976;2024-01-11T07:49:40;96990.66;;;9.07;60.72
83095;BME280;72967;43.674;6.976;2024-01-11T07:52:05;96984.59;;;9.22;60.87
83095;BME280;72967;43.674;6.976;2024-01-11T07:54:31;96986.78;;;9.08;61.75
83095;BME280;72967;43.674;6.976;2024-01-11T07:56:57;96985.19;;;9.07;60.33
83095;BME280;72967;43.674;6.976;2024-01-11T07:59:22;96992.94;;;9.05;61.18
83095;BME280;72967;43.674;6.976;2024-01-11T08:01:48;96988.28;;;9.06;61.27
83095;BME280;72967;43.674;6.976;2024-01-11T08:04:14;96991.28;;;9.13;61.03
83095;BME280;72967;43.674;6.976;2024-01-11T08:06:39;97000.78;;;9.15;61.16
83095;BME280;72967;43.674;6.976;2024-01-11T08:09:04;96997.53;;;9.22;60.38
83095;BME280;72967;43.674;6.976;2024-01-11T08:11:30;97000.03;;;9.35;59.86
83095;BME280;72967;43.674;6.976;2024-01-11T08:13:56;97001.22;;;9.26;59.09
83095;BME280;72967;43.674;6.976;2024-01-11T08:16:22;96997.09;;;9.41;59.81
83095;BME280;72967;43.674;6.976;2024-01-11T08:18:47;97000.22;;;9.30;59.80
83095;BME280;72967;43.674;6.976;2024-01-11T08:21:14;97005.25;;;9.49;59.44
83095;BME280;72967;43.674;6.976;2024-01-11T08:23:40;97009.53;;;9.59;60.08
83095;BME280;72967;43.674;6.976;2024-01-11T08:26:17;97022.34;;;9.75;59.27
83095;BME280;72967;43.674;6.976;2024-01-11T08:28:45;97015.19;;;9.83;59.26
83095;BME280;72967;43.674;6.976;2024-01-11T08:31:11;97030.84;;;9.82;59.05
83095;BME280;72967;43.674;6.976;2024-01-11T08:33:37;97010.31;;;9.68;60.69
83095;BME280;72967;43.674;6.976;2024-01-11T08:36:06;97025.69;;;9.81;60.08
83095;BME280;72967;43.674;6.976;2024-01-11T08:38:32;97025.16;;;9.67;60.29
83095;BME280;72967;43.674;6.976;2024-01-11T08:40:58;97019.53;;;9.63;60.87
83095;BME280;72967;43.674;6.976;2024-01-11T08:43:25;97033.59;;;9.82;60.17
83095;BME280;72967;43.674;6.976;2024-01-11T08:45:50;97031.28;;;9.64;60.68
83095;BME280;72967;43.674;6.976;2024-01-11T08:48:16;97028.91;;;9.83;60.06
83095;BME280;72967;43.674;6.976;2024-01-11T08:50:41;97025.75;;;9.72;61.11
83095;BME280;72967;43.674;6.976;2024-01-11T08:53:06;97025.75;;;9.72;61.93
83095;BME280;72967;43.674;6.976;2024-01-11T08:55:32;97023.44;;;9.83;61.26
83095;BME280;72967;43.674;6.976;2024-01-11T08:57:58;97022.63;;;9.82;61.05
83095;BME280;72967;43.674;6.976;2024-01-11T09:00:23;97026.63;;;9.85;60.65
83095;BME280;72967;43.674;6.976;2024-01-11T09:02:49;97018.53;;;9.89;60.69
83095;BME280;72967;43.674;6.976;2024-01-11T09:05:15;97016.78;;;10.05;60.07
83095;BME280;72967;43.674;6.976;2024-01-11T09:07:40;97025.47;;;10.28;59.66
83095;BME280;72967;43.674;6.976;2024-01-11T09:10:06;97019.78;;;10.33;58.01
83095;BME280;72967;43.674;6.976;2024-01-11T09:12:36;97020.56;;;10.33;58.85
83095;BME280;72967;43.674;6.976;2024-01-11T09:15:02;97013.47;;;10.32;58.34
83095;BME280;72967;43.674;6.976;2024-01-11T09:17:28;97029.19;;;10.44;59.35
83095;BME280;72967;43.674;6.976;2024-01-11T09:19:53;97031.03;;;10.40;58.97
83095;BME280;72967;43.674;6.976;2024-01-11T09:22:19;97038.00;;;10.37;59.85
83095;BME280;72967;43.674;6.976;2024-01-11T09:24:44;97026.44;;;10.44;57.69
83095;BME280;72967;43.674;6.976;2024-01-11T09:27:10;97034.38;;;10.57;57.83
83095;BME280;72967;43.674;6.976;2024-01-11T09:29:35;97037.94;;;10.58;59.46
83095;BME280;72967;43.674;6.976;2024-01-11T09:32:01;97015.94;;;10.46;57.51
83095;BME280;72967;43.674;6.976;2024-01-11T09:34:26;97038.88;;;10.62;58.61
83095;BME280;72967;43.674;6.976;2024-01-11T09:36:52;97045.09;;;10.71;58.09
83095;BME280;72967;43.674;6.976;2024-01-11T09:39:17;97037.19;;;10.94;57.95
83095;BME280;72967;43.674;6.976;2024-01-11T09:41:52;97038.47;;;10.96;57.77
83095;BME280;72967;43.674;6.976;2024-01-11T09:44:23;97030.00;;;11.01;56.32
83095;BME280;72967;43.674;6.976;2024-01-11T09:46:49;97033.22;;;11.03;57.52
83095;BME280;72967;43.674;6.976;2024-01-11T09:49:16;97030.34;;;11.12;56.96
83095;BME280;72967;43.674;6.976;2024-01-11T09:51:42;97034.81;;;11.17;56.37
83095;BME280;72967;43.674;6.976;2024-01-11T09:54:09;97032.19;;;11.08;56.40
83095;BME280;72967;43.674;6.976;2024-01-11T09:56:36;97036.91;;;11.32;55.98
83095;BME280;72967;43.674;6.976;2024-01-11T09:59:02;97042.84;;;10.97;55.32
83095;BME280;72967;43.674;6.976;2024-01-11T10:01:31;97043.31;;;11.24;56.21
83095;BME280;72967;43.674;6.976;2024-01-11T10:03:56;97035.25;;;10.94;57.50
83095;BME280;72967;43.674;6.976;2024-01-11T10:06:23;97032.50;;;10.94;57.73
83095;BME280;72967;43.674;6.976;2024-01-11T10:08:51;97035.63;;;11.05;57.68
83095;BME280;72967;43.674;6.976;2024-01-11T10:11:16;97032.06;;;11.17;57.18
83095;BME280;72967;43.674;6.976;2024-01-11T10:13:42;97030.13;;;11.29;55.29
83095;BME280;72967;43.674;6.976;2024-01-11T10:16:09;97033.69;;;11.54;53.97
83095;BME280;72967;43.674;6.976;2024-01-11T10:18:36;97031.63;;;11.39;55.76
83095;BME280;72967;43.674;6.976;2024-01-11T10:21:02;97021.88;;;11.29;55.43
83095;BME280;72967;43.674;6.976;2024-01-11T10:23:28;97029.06;;;11.46;55.44
83095;BME280;72967;43.674;6.976;2024-01-11T10:25:56;97018.19;;;11.49;55.44
83095;BME280;72967;43.674;6.976;2024-01-11T10:28:23;97025.84;;;11.68;54.55
83095;BME280;72967;43.674;6.976;2024-01-11T10:30:50;97028.59;;;11.56;55.84
83095;BME280;72967;43.674;6.976;2024-01-11T10:33:19;97019.19;;;11.69;56.16
83095;BME280;72967;43.674;6.976;2024-01-11T10:35:46;97012.91;;;11.81;55.14
83095;BME280;72967;43.674;6.976;2024-01-11T10:38:11;97018.88;;;11.59;55.24
83095;BME280;72967;43.674;6.976;2024-01-11T10:40:37;97001.53;;;11.70;54.00
83095;BME280;72967;43.674;6.976;2024-01-11T10:43:05;97004.00;;;12.00;53.92
83095;BME280;72967;43.674;6.976;2024-01-11T10:45:36;97006.22;;;11.82;53.52
83095;BME280;72967;43.674;6.976;2024-01-11T10:48:06;96992.56;;;11.85;53.30
83095;BME280;72967;43.674;6.976;2024-01-11T10:50:36;97012.25;;;12.00;53.64
83095;BME280;72967;43.674;6.976;2024-01-11T10:55:50;97006.75;;;12.27;53.42
83095;BME280;72967;43.674;6.976;2024-01-11T10:58:15;97013.84;;;12.28;52.79
83095;BME280;72967;43.674;6.976;2024-01-11T11:00:41;97009.44;;;12.40;52.24
83095;BME280;72967;43.674;6.976;2024-01-11T11:03:07;97005.16;;;12.26;50.97
83095;BME280;72967;43.674;6.976;2024-01-11T11:05:34;97001.34;;;12.31;51.26
83095;BME280;72967;43.674;6.976;2024-01-11T11:08:01;96999.63;;;12.26;51.74
83095;BME280;72967;43.674;6.976;2024-01-11T11:10:31;96996.59;;;12.16;52.24
83095;BME280;72967;43.674;6.976;2024-01-11T11:12:58;97000.50;;;12.43;52.04
83095;BME280;72967;43.674;6.976;2024-01-11T11:15:26;97002.31;;;12.39;52.55
83095;BME280;72967;43.674;6.976;2024-01-11T11:17:52;96999.00;;;12.17;52.58
83095;BME280;72967;43.674;6.976;2024-01-11T11:20:18;97003.78;;;12.20;52.89
83095;BME280;72967;43.674;6.976;2024-01-11T11:23:09;96995.44;;;12.17;52.57
83095;BME280;72967;43.674;6.976;2024-01-11T11:25:35;97001.78;;;12.05;53.07
83095;BME280;72967;43.674;6.976;2024-01-11T11:28:01;96995.47;;;12.32;52.94
83095;BME280;72967;43.674;6.976;2024-01-11T11:30:29;96996.81;;;12.39;52.97
83095;BME280;72967;43.674;6.976;2024-01-11T11:32:55;97000.78;;;12.53;52.75
83095;BME280;72967;43.674;6.976;2024-01-11T11:35:23;97001.91;;;12.52;51.93
83095;BME280;72967;43.674;6.976;2024-01-11T11:37:55;96988.81;;;12.49;51.11
83095;BME280;72967;43.674;6.976;2024-01-11T11:40:20;96998.06;;;12.41;51.30
83095;BME280;72967;43.674;6.976;2024-01-11T11:42:47;96975.69;;;12.15;51.45
83095;BME280;72967;43.674;6.976;2024-01-11T11:45:24;96985.16;;;12.29;51.75
83095;BME280;72967;43.674;6.976;2024-01-11T11:47:50;96986.66;;;12.27;51.88
83095;BME280;72967;43.674;6.976;2024-01-11T11:50:15;96982.84;;;12.04;52.25
83095;BME280;72967;43.674;6.976;2024-01-11T11:52:41;96991.97;;;12.20;51.31
83095;BME280;72967;43.674;6.976;2024-01-11T11:55:09;96978.13;;;12.04;51.92
83095;BME280;72967;43.674;6.976;2024-01-11T11:57:35;96992.06;;;11.96;52.52
83095;BME280;72967;43.674;6.976;2024-01-11T12:00:02;96985.94;;;12.02;52.93
83095;BME280;72967;43.674;6.976;2024-01-11T12:02:31;96981.19;;;12.15;52.77
83095;BME280;72967;43.674;6.976;2024-01-11T12:04:57;96978.78;;;12.13;52.74
83095;BME280;72967;43.674;6.976;2024-01-11T12:07:22;96980.84;;;12.16;52.52
83095;BME280;72967;43.674;6.976;2024-01-11T12:09:49;96971.06;;;12.19;52.96
83095;BME280;72967;43.674;6.976;2024-01-11T12:12:16;96974.16;;;12.02;53.29
83095;BME280;72967;43.674;6.976;2024-01-11T12:14:43;96978.66;;;12.22;53.88
83095;BME280;72967;43.674;6.976;2024-01-11T12:17:08;96973.72;;;12.15;53.80
83095;BME280;72967;43.674;6.976;2024-01-11T12:19:34;96964.81;;;12.06;54.18
83095;BME280;72967;43.674;6.976;2024-01-11T12:22:00;96974.78;;;12.11;54.70
83095;BME280;72967;43.674;6.976;2024-01-11T12:24:25;96965.19;;;11.92;55.70
83095;BME280;72967;43.674;6.976;2024-01-11T12:26:52;96967.03;;;12.01;55.96
83095;BME280;72967;43.674;6.976;2024-01-11T12:29:19;96966.16;;;11.84;56.05
83095;BME280;72967;43.674;6.976;2024-01-11T12:31:44;96962.69;;;11.87;56.95
83095;BME280;72967;43.674;6.976;2024-01-11T12:34:11;96958.81;;;11.76;57.06
83095;BME280;72967;43.674;6.976;2024-01-11T12:36:38;96947.47;;;11.78;57.07
83095;BME280;72967;43.674;6.976;2024-01-11T12:39:03;96941.59;;;11.91;57.09
83095;BME280;72967;43.674;6.976;2024-01-11T12:41:32;96940.53;;;11.96;57.75
83095;BME280;72967;43.674;6.976;2024-01-11T12:43:58;96941.03;;;11.86;59.05
83095;BME280;72967;43.674;6.976;2024-01-11T12:46:24;96945.91;;;11.92;58.64
83095;BME280;72967;43.674;6.976;2024-01-11T12:48:50;96931.53;;;11.99;58.44
83095;BME280;72967;43.674;6.976;2024-01-11T12:51:16;96937.50;;;11.73;58.82
83095;BME280;72967;43.674;6.976;2024-01-11T12:53:45;96935.53;;;11.86;57.19
83095;BME280;72967;43.674;6.976;2024-01-11T12:56:10;96934.91;;;11.92;57.30
83095;BME280;72967;43.674;6.976;2024-01-11T12:58:39;96928.50;;;11.88;58.50
83095;BME280;72967;43.674;6.976;2024-01-11T13:01:05;96927.81;;;12.07;58.24
83095;BME280;72967;43.674;6.976;2024-01-11T13:03:33;96933.78;;;12.09;57.07
83095;BME280;72967;43.674;6.976;2024-01-11T13:05:59;96933.44;;;12.11;57.56